Shepherdstown, WV (25443)

5:03 AM EDT on August 26, 2016 (GMT -0400)
Maddex Farm | | Change Station

Elev 453 ft 39.44 °N, 77.82 °W | Updated 5 minutes ago

Mostly Cloudy
Mostly Cloudy
76.2 °F
Feels Like 77 °F
N
0.0
Wind Variable Wind from NNE
Gusts 1.0 mph

Today
High -- | Low -- °F
--% Chance of Precip.
Yesterday
High -- | Low -- °F
Precip. -- in
Pressure 30.02 in
Visibility 10.0 miles
Clouds Mostly Cloudy 3900 ft
Heat Index 77 °F
Dew Point 73 °F
Humidity 89%
Rainfall 0.00 in
Snow Depth Not available.
6:34 AM 7:50 PM
Last Quarter, 36% visible
METAR KMRB 260853Z AUTO 25003KT 10SM BKN039 24/22 A3003 RMK AO2 SLP164 T02390217 53006 TSNO
Pressure 30.02 in
Visibility 10.0 miles
Clouds Mostly Cloudy 3900 ft
Heat Index 77 °F
Dew Point 73 °F
Humidity 89%
Rainfall 0.00 in
Snow Depth Not available.
6:34 AM 7:50 PM
Last Quarter, 36% visible
METAR KMRB 260853Z AUTO 25003KT 10SM BKN039 24/22 A3003 RMK AO2 SLP164 T02390217 53006 TSNO

10-Day Weather Forecast

Almanac

Astronomy

Aug. 26, 2016 Rise Set
Actual Time
Civil Twilight
Nautical Twilight
Astronomical Twilight
Moon
Length of Visible Light
Length of Day
Tomorrow will be .
, % of the Moon is Illuminated

Today's Extremes

State Highs State Lows

Community

WunderPhotos

Upload Photos

1,935,062 photos uploaded!

WunderBlog® & News

Nearby

Air Quality

  Air Quality AQ Index Pollutant
Not available.

Snow Depth

Station Depth Elevation

Earthquake Activity

City Distance Mag. Time & Date
Minimum magnitude displayed is 2.5.

Coastal Water Temperatures

Place Temperature

Stations

Nearby Weather Stations

Station Location Temp. Windchill Dew Point Humidity Wind Precip. Elev Updated Type
                   

Watches & Warnings

There are currently no watches in effect.